sensor_id;sensor_type;location;lat;lon;timestamp;P1;durP1;ratioP1;P2;durP2;ratioP2
23617;SDS011;18207;32.078;34.818;2022-09-30T00:00:31;1.05;;;0.95;;
23617;SDS011;18207;32.078;34.818;2022-09-30T00:03:02;0.70;;;0.70;;
23617;SDS011;18207;32.078;34.818;2022-09-30T00:05:32;1.55;;;0.80;;
23617;SDS011;18207;32.078;34.818;2022-09-30T00:08:02;0.52;;;0.52;;
23617;SDS011;18207;32.078;34.818;2022-09-30T00:10:33;0.65;;;0.60;;
23617;SDS011;18207;32.078;34.818;2022-09-30T00:13:05;0.60;;;0.60;;
23617;SDS011;18207;32.078;34.818;2022-09-30T00:15:35;0.60;;;0.60;;
23617;SDS011;18207;32.078;34.818;2022-09-30T00:18:06;0.63;;;0.63;;
23617;SDS011;18207;32.078;34.818;2022-09-30T00:20:37;0.50;;;0.50;;
23617;SDS011;18207;32.078;34.818;2022-09-30T00:23:07;0.52;;;0.50;;
23617;SDS011;18207;32.078;34.818;2022-09-30T00:25:37;1.35;;;0.80;;
23617;SDS011;18207;32.078;34.818;2022-09-30T00:28:10;0.60;;;0.60;;
23617;SDS011;18207;32.078;34.818;2022-09-30T00:30:41;0.57;;;0.57;;
23617;SDS011;18207;32.078;34.818;2022-09-30T00:33:12;1.77;;;0.80;;
23617;SDS011;18207;32.078;34.818;2022-09-30T00:35:42;0.60;;;0.60;;
23617;SDS011;18207;32.078;34.818;2022-09-30T00:38:12;0.63;;;0.50;;
23617;SDS011;18207;32.078;34.818;2022-09-30T00:40:42;0.75;;;0.60;;
23617;SDS011;18207;32.078;34.818;2022-09-30T00:43:16;1.52;;;0.70;;
23617;SDS011;18207;32.078;34.818;2022-09-30T00:46:08;0.55;;;0.55;;
23617;SDS011;18207;32.078;34.818;2022-09-30T00:48:52;2.88;;;0.85;;
23617;SDS011;18207;32.078;34.818;2022-09-30T00:51:26;1.23;;;0.70;;
23617;SDS011;18207;32.078;34.818;2022-09-30T00:54:04;1.25;;;0.80;;
23617;SDS011;18207;32.078;34.818;2022-09-30T00:56:41;0.70;;;0.70;;
23617;SDS011;18207;32.078;34.818;2022-09-30T00:59:21;0.82;;;0.82;;
23617;SDS011;18207;32.078;34.818;2022-09-30T01:01:59;2.08;;;0.80;;
23617;SDS011;18207;32.078;34.818;2022-09-30T01:04:30;0.98;;;0.85;;
23617;SDS011;18207;32.078;34.818;2022-09-30T01:07:03;0.80;;;0.80;;
23617;SDS011;18207;32.078;34.818;2022-09-30T01:09:38;1.42;;;0.90;;
23617;SDS011;18207;32.078;34.818;2022-09-30T01:12:11;0.80;;;0.80;;
23617;SDS011;18207;32.078;34.818;2022-09-30T01:14:46;1.08;;;0.77;;
23617;SDS011;18207;32.078;34.818;2022-09-30T01:17:22;0.90;;;0.90;;
23617;SDS011;18207;32.078;34.818;2022-09-30T01:33:02;1.17;;;1.08;;
23617;SDS011;18207;32.078;34.818;2022-09-30T01:35:55;1.30;;;0.90;;
23617;SDS011;18207;32.078;34.818;2022-09-30T01:38:51;1.25;;;1.05;;
23617;SDS011;18207;32.078;34.818;2022-09-30T01:41:32;0.88;;;0.88;;
23617;SDS011;18207;32.078;34.818;2022-09-30T01:44:12;0.90;;;0.82;;
23617;SDS011;18207;32.078;34.818;2022-09-30T01:46:53;1.23;;;1.17;;
23617;SDS011;18207;32.078;34.818;2022-09-30T01:49:36;1.13;;;0.90;;
23617;SDS011;18207;32.078;34.818;2022-09-30T01:52:15;0.80;;;0.80;;
23617;SDS011;18207;32.078;34.818;2022-09-30T01:54:52;1.13;;;1.02;;
23617;SDS011;18207;32.078;34.818;2022-09-30T01:57:32;0.90;;;0.90;;
23617;SDS011;18207;32.078;34.818;2022-09-30T02:00:18;0.80;;;0.80;;
23617;SDS011;18207;32.078;34.818;2022-09-30T02:02:49;1.30;;;1.02;;
23617;SDS011;18207;32.078;34.818;2022-09-30T02:05:29;1.88;;;0.90;;
23617;SDS011;18207;32.078;34.818;2022-09-30T02:08:10;1.42;;;1.10;;
23617;SDS011;18207;32.078;34.818;2022-09-30T02:10:48;0.85;;;0.85;;
23617;SDS011;18207;32.078;34.818;2022-09-30T02:13:27;1.20;;;1.00;;
23617;SDS011;18207;32.078;34.818;2022-09-30T02:16:05;1.50;;;1.00;;
23617;SDS011;18207;32.078;34.818;2022-09-30T02:18:43;1.30;;;1.20;;
23617;SDS011;18207;32.078;34.818;2022-09-30T02:21:18;1.25;;;1.15;;
23617;SDS011;18207;32.078;34.818;2022-09-30T02:23:56;0.98;;;0.98;;
23617;SDS011;18207;32.078;34.818;2022-09-30T02:26:33;1.10;;;1.00;;
23617;SDS011;18207;32.078;34.818;2022-09-30T02:29:09;1.30;;;1.20;;
23617;SDS011;18207;32.078;34.818;2022-09-30T02:31:47;1.45;;;1.10;;
23617;SDS011;18207;32.078;34.818;2022-09-30T02:34:23;1.30;;;1.20;;
23617;SDS011;18207;32.078;34.818;2022-09-30T02:37:01;1.27;;;1.10;;
23617;SDS011;18207;32.078;34.818;2022-09-30T02:39:38;1.50;;;1.08;;
23617;SDS011;18207;32.078;34.818;2022-09-30T02:42:15;1.20;;;1.10;;
23617;SDS011;18207;32.078;34.818;2022-09-30T02:44:52;1.23;;;1.13;;
23617;SDS011;18207;32.078;34.818;2022-09-30T02:47:30;1.05;;;1.05;;
23617;SDS011;18207;32.078;34.818;2022-09-30T02:50:22;1.20;;;1.10;;
23617;SDS011;18207;32.078;34.818;2022-09-30T02:53:03;2.53;;;1.23;;
23617;SDS011;18207;32.078;34.818;2022-09-30T02:55:55;1.00;;;1.00;;
23617;SDS011;18207;32.078;34.818;2022-09-30T02:58:47;1.52;;;0.80;;
23617;SDS011;18207;32.078;34.818;2022-09-30T03:01:22;2.00;;;1.40;;
23617;SDS011;18207;32.078;34.818;2022-09-30T03:03:54;1.20;;;0.90;;
23617;SDS011;18207;32.078;34.818;2022-09-30T03:06:28;1.15;;;1.08;;
23617;SDS011;18207;32.078;34.818;2022-09-30T03:09:02;1.33;;;1.20;;
23617;SDS011;18207;32.078;34.818;2022-09-30T03:11:34;1.08;;;1.00;;
23617;SDS011;18207;32.078;34.818;2022-09-30T03:14:12;2.03;;;1.00;;
23617;SDS011;18207;32.078;34.818;2022-09-30T03:17:23;1.15;;;0.98;;
23617;SDS011;18207;32.078;34.818;2022-09-30T03:23:14;1.13;;;1.05;;
23617;SDS011;18207;32.078;34.818;2022-09-30T03:26:16;1.00;;;0.90;;
23617;SDS011;18207;32.078;34.818;2022-09-30T03:29:05;0.80;;;0.80;;
23617;SDS011;18207;32.078;34.818;2022-09-30T03:31:53;1.52;;;1.42;;
23617;SDS011;18207;32.078;34.818;2022-09-30T03:34:37;0.95;;;0.93;;
23617;SDS011;18207;32.078;34.818;2022-09-30T03:37:30;1.27;;;1.10;;
23617;SDS011;18207;32.078;34.818;2022-09-30T03:40:14;1.38;;;1.00;;
23617;SDS011;18207;32.078;34.818;2022-09-30T03:42:59;1.35;;;1.02;;
23617;SDS011;18207;32.078;34.818;2022-09-30T03:45:38;1.35;;;1.10;;
23617;SDS011;18207;32.078;34.818;2022-09-30T03:48:15;2.75;;;1.50;;
23617;SDS011;18207;32.078;34.818;2022-09-30T03:50:49;1.80;;;1.40;;
23617;SDS011;18207;32.078;34.818;2022-09-30T03:53:21;1.40;;;1.25;;
23617;SDS011;18207;32.078;34.818;2022-09-30T03:55:54;1.40;;;1.30;;
23617;SDS011;18207;32.078;34.818;2022-09-30T03:58:27;1.92;;;1.40;;
23617;SDS011;18207;32.078;34.818;2022-09-30T04:00:57;1.15;;;1.10;;
23617;SDS011;18207;32.078;34.818;2022-09-30T04:03:27;2.30;;;1.15;;
23617;SDS011;18207;32.078;34.818;2022-09-30T04:05:57;1.33;;;1.23;;
23617;SDS011;18207;32.078;34.818;2022-09-30T04:08:27;2.63;;;1.33;;
23617;SDS011;18207;32.078;34.818;2022-09-30T04:10:59;1.50;;;1.30;;
23617;SDS011;18207;32.078;34.818;2022-09-30T04:13:31;2.15;;;1.27;;
23617;SDS011;18207;32.078;34.818;2022-09-30T04:16:01;1.52;;;1.40;;
23617;SDS011;18207;32.078;34.818;2022-09-30T04:18:34;2.40;;;1.50;;
23617;SDS011;18207;32.078;34.818;2022-09-30T04:21:05;1.42;;;1.33;;
23617;SDS011;18207;32.078;34.818;2022-09-30T04:23:36;1.70;;;1.52;;
23617;SDS011;18207;32.078;34.818;2022-09-30T04:26:10;2.13;;;1.55;;
23617;SDS011;18207;32.078;34.818;2022-09-30T04:28:44;1.58;;;1.48;;
23617;SDS011;18207;32.078;34.818;2022-09-30T04:31:15;1.75;;;1.65;;
23617;SDS011;18207;32.078;34.818;2022-09-30T04:33:47;2.10;;;1.55;;
23617;SDS011;18207;32.078;34.818;2022-09-30T04:36:17;1.67;;;1.58;;
23617;SDS011;18207;32.078;34.818;2022-09-30T04:38:47;1.95;;;1.55;;
23617;SDS011;18207;32.078;34.818;2022-09-30T04:41:19;1.75;;;1.63;;
23617;SDS011;18207;32.078;34.818;2022-09-30T04:43:51;1.70;;;1.60;;
23617;SDS011;18207;32.078;34.818;2022-09-30T04:46:22;2.40;;;1.40;;
23617;SDS011;18207;32.078;34.818;2022-09-30T04:48:53;2.45;;;1.48;;
23617;SDS011;18207;32.078;34.818;2022-09-30T04:51:23;1.80;;;1.67;;
23617;SDS011;18207;32.078;34.818;2022-09-30T04:53:55;1.75;;;1.40;;
23617;SDS011;18207;32.078;34.818;2022-09-30T04:56:26;2.35;;;1.67;;
23617;SDS011;18207;32.078;34.818;2022-09-30T04:58:59;2.10;;;1.55;;
23617;SDS011;18207;32.078;34.818;2022-09-30T05:01:29;1.92;;;1.70;;
23617;SDS011;18207;32.078;34.818;2022-09-30T05:03:59;1.95;;;1.80;;
23617;SDS011;18207;32.078;34.818;2022-09-30T05:06:31;2.65;;;1.65;;
23617;SDS011;18207;32.078;34.818;2022-09-30T05:09:02;1.70;;;1.50;;
23617;SDS011;18207;32.078;34.818;2022-09-30T05:11:32;2.20;;;1.50;;
23617;SDS011;18207;32.078;34.818;2022-09-30T05:14:08;2.08;;;1.67;;
23617;SDS011;18207;32.078;34.818;2022-09-30T05:16:39;1.83;;;1.73;;
23617;SDS011;18207;32.078;34.818;2022-09-30T05:19:09;1.90;;;1.65;;
23617;SDS011;18207;32.078;34.818;2022-09-30T05:21:39;1.77;;;1.67;;
23617;SDS011;18207;32.078;34.818;2022-09-30T05:24:11;2.47;;;1.58;;
23617;SDS011;18207;32.078;34.818;2022-09-30T05:26:41;2.95;;;1.75;;
23617;SDS011;18207;32.078;34.818;2022-09-30T05:29:14;1.48;;;1.38;;
23617;SDS011;18207;32.078;34.818;2022-09-30T05:31:45;1.88;;;1.50;;
23617;SDS011;18207;32.078;34.818;2022-09-30T05:34:16;1.52;;;1.42;;
23617;SDS011;18207;32.078;34.818;2022-09-30T05:36:47;2.00;;;1.70;;
23617;SDS011;18207;32.078;34.818;2022-09-30T05:39:17;1.70;;;1.60;;
23617;SDS011;18207;32.078;34.818;2022-09-30T05:41:47;2.20;;;2.00;;
23617;SDS011;18207;32.078;34.818;2022-09-30T05:44:20;1.88;;;1.45;;
23617;SDS011;18207;32.078;34.818;2022-09-30T05:46:50;1.75;;;1.60;;
23617;SDS011;18207;32.078;34.818;2022-09-30T05:49:20;1.70;;;1.60;;
23617;SDS011;18207;32.078;34.818;2022-09-30T05:51:52;2.72;;;1.67;;
23617;SDS011;18207;32.078;34.818;2022-09-30T05:54:22;2.25;;;1.80;;
23617;SDS011;18207;32.078;34.818;2022-09-30T05:56:53;1.70;;;1.60;;
23617;SDS011;18207;32.078;34.818;2022-09-30T05:59:25;1.63;;;1.52;;
23617;SDS011;18207;32.078;34.818;2022-09-30T06:01:56;1.50;;;1.40;;
23617;SDS011;18207;32.078;34.818;2022-09-30T06:04:26;1.60;;;1.50;;
23617;SDS011;18207;32.078;34.818;2022-09-30T06:06:56;1.40;;;1.30;;
23617;SDS011;18207;32.078;34.818;2022-09-30T06:09:26;1.33;;;1.25;;
23617;SDS011;18207;32.078;34.818;2022-09-30T06:11:57;1.83;;;1.30;;
23617;SDS011;18207;32.078;34.818;2022-09-30T06:14:28;1.20;;;1.10;;
23617;SDS011;18207;32.078;34.818;2022-09-30T06:16:59;1.38;;;1.23;;
23617;SDS011;18207;32.078;34.818;2022-09-30T06:19:31;1.10;;;1.05;;
23617;SDS011;18207;32.078;34.818;2022-09-30T06:22:01;1.70;;;1.00;;
23617;SDS011;18207;32.078;34.818;2022-09-30T06:24:32;1.55;;;1.08;;
23617;SDS011;18207;32.078;34.818;2022-09-30T06:27:03;0.68;;;0.68;;
23617;SDS011;18207;32.078;34.818;2022-09-30T06:29:36;1.10;;;1.00;;
23617;SDS011;18207;32.078;34.818;2022-09-30T06:32:06;1.10;;;1.00;;
23617;SDS011;18207;32.078;34.818;2022-09-30T06:34:36;2.55;;;1.05;;
23617;SDS011;18207;32.078;34.818;2022-09-30T06:37:07;0.82;;;0.82;;
23617;SDS011;18207;32.078;34.818;2022-09-30T06:39:37;0.80;;;0.80;;
23617;SDS011;18207;32.078;34.818;2022-09-30T06:42:08;0.98;;;0.80;;
23617;SDS011;18207;32.078;34.818;2022-09-30T06:44:41;1.80;;;0.73;;
23617;SDS011;18207;32.078;34.818;2022-09-30T06:47:18;0.70;;;0.70;;
23617;SDS011;18207;32.078;34.818;2022-09-30T06:49:51;1.15;;;1.02;;
23617;SDS011;18207;32.078;34.818;2022-09-30T06:52:25;1.20;;;1.00;;
23617;SDS011;18207;32.078;34.818;2022-09-30T06:54:56;1.13;;;1.00;;
23617;SDS011;18207;32.078;34.818;2022-09-30T06:57:26;1.58;;;1.00;;
23617;SDS011;18207;32.078;34.818;2022-09-30T06:59:59;1.20;;;1.00;;
23617;SDS011;18207;32.078;34.818;2022-09-30T07:02:30;1.02;;;0.90;;
23617;SDS011;18207;32.078;34.818;2022-09-30T07:05:00;1.10;;;1.00;;
23617;SDS011;18207;32.078;34.818;2022-09-30T07:07:31;1.23;;;0.80;;
23617;SDS011;18207;32.078;34.818;2022-09-30T07:10:03;0.95;;;0.80;;
23617;SDS011;18207;32.078;34.818;2022-09-30T07:12:34;1.52;;;1.15;;
23617;SDS011;18207;32.078;34.818;2022-09-30T07:15:07;0.98;;;0.90;;
23617;SDS011;18207;32.078;34.818;2022-09-30T07:17:39;0.88;;;0.77;;
23617;SDS011;18207;32.078;34.818;2022-09-30T07:20:10;1.52;;;0.80;;
23617;SDS011;18207;32.078;34.818;2022-09-30T07:22:40;1.02;;;0.80;;
23617;SDS011;18207;32.078;34.818;2022-09-30T07:25:11;0.45;;;0.45;;
23617;SDS011;18207;32.078;34.818;2022-09-30T07:27:43;0.63;;;0.63;;
23617;SDS011;18207;32.078;34.818;2022-09-30T07:30:16;1.20;;;1.10;;
23617;SDS011;18207;32.078;34.818;2022-09-30T07:32:52;1.00;;;0.90;;
23617;SDS011;18207;32.078;34.818;2022-09-30T07:35:23;0.88;;;0.73;;
23617;SDS011;18207;32.078;34.818;2022-09-30T07:37:54;1.55;;;0.70;;
23617;SDS011;18207;32.078;34.818;2022-09-30T07:40:27;1.08;;;0.95;;
23617;SDS011;18207;32.078;34.818;2022-09-30T07:42:58;0.98;;;0.82;;
23617;SDS011;18207;32.078;34.818;2022-09-30T07:45:31;1.20;;;0.90;;
23617;SDS011;18207;32.078;34.818;2022-09-30T07:48:02;0.60;;;0.60;;
23617;SDS011;18207;32.078;34.818;2022-09-30T07:50:53;1.00;;;0.77;;
23617;SDS011;18207;32.078;34.818;2022-09-30T07:53:24;0.80;;;0.73;;
23617;SDS011;18207;32.078;34.818;2022-09-30T07:55:54;0.70;;;0.70;;
23617;SDS011;18207;32.078;34.818;2022-09-30T07:58:25;1.27;;;0.75;;
23617;SDS011;18207;32.078;34.818;2022-09-30T08:00:57;1.10;;;1.00;;
23617;SDS011;18207;32.078;34.818;2022-09-30T08:03:28;0.65;;;0.65;;
23617;SDS011;18207;32.078;34.818;2022-09-30T08:06:02;0.65;;;0.60;;
23617;SDS011;18207;32.078;34.818;2022-09-30T08:08:35;1.10;;;0.90;;
23617;SDS011;18207;32.078;34.818;2022-09-30T08:11:07;1.02;;;0.70;;
23617;SDS011;18207;32.078;34.818;2022-09-30T08:13:38;0.85;;;0.60;;
23617;SDS011;18207;32.078;34.818;2022-09-30T08:16:10;0.80;;;0.80;;
23617;SDS011;18207;32.078;34.818;2022-09-30T08:18:41;0.85;;;0.77;;
23617;SDS011;18207;32.078;34.818;2022-09-30T08:21:12;1.70;;;0.90;;
23617;SDS011;18207;32.078;34.818;2022-09-30T08:23:42;0.77;;;0.77;;
23617;SDS011;18207;32.078;34.818;2022-09-30T08:26:12;1.00;;;0.80;;
23617;SDS011;18207;32.078;34.818;2022-09-30T08:28:43;0.85;;;0.85;;
23617;SDS011;18207;32.078;34.818;2022-09-30T08:31:17;0.93;;;0.75;;
23617;SDS011;18207;32.078;34.818;2022-09-30T08:33:50;1.00;;;0.70;;
23617;SDS011;18207;32.078;34.818;2022-09-30T08:36:22;1.75;;;1.00;;
23617;SDS011;18207;32.078;34.818;2022-09-30T08:38:55;0.82;;;0.82;;
23617;SDS011;18207;32.078;34.818;2022-09-30T08:41:29;1.13;;;0.90;;
23617;SDS011;18207;32.078;34.818;2022-09-30T08:44:50;1.40;;;1.00;;
23617;SDS011;18207;32.078;34.818;2022-09-30T08:47:36;0.95;;;0.80;;
23617;SDS011;18207;32.078;34.818;2022-09-30T08:50:19;0.85;;;0.85;;
23617;SDS011;18207;32.078;34.818;2022-09-30T08:53:02;0.75;;;0.75;;
23617;SDS011;18207;32.078;34.818;2022-09-30T08:55:44;1.17;;;0.90;;
23617;SDS011;18207;32.078;34.818;2022-09-30T08:58:17;0.73;;;0.70;;
23617;SDS011;18207;32.078;34.818;2022-09-30T09:00:56;1.55;;;0.80;;
23617;SDS011;18207;32.078;34.818;2022-09-30T09:03:36;0.70;;;0.70;;
23617;SDS011;18207;32.078;34.818;2022-09-30T09:06:17;1.10;;;0.85;;
23617;SDS011;18207;32.078;34.818;2022-09-30T09:12:22;0.80;;;0.80;;
23617;SDS011;18207;32.078;34.818;2022-09-30T09:15:12;0.90;;;0.90;;
23617;SDS011;18207;32.078;34.818;2022-09-30T09:18:21;0.43;;;0.43;;
23617;SDS011;18207;32.078;34.818;2022-09-30T09:21:26;1.00;;;0.80;;
23617;SDS011;18207;32.078;34.818;2022-09-30T09:24:11;0.63;;;0.63;;
23617;SDS011;18207;32.078;34.818;2022-09-30T09:26:46;0.77;;;0.70;;
23617;SDS011;18207;32.078;34.818;2022-09-30T09:29:21;0.52;;;0.50;;
23617;SDS011;18207;32.078;34.818;2022-09-30T09:32:09;0.70;;;0.70;;
23617;SDS011;18207;32.078;34.818;2022-09-30T09:34:43;1.70;;;0.90;;
23617;SDS011;18207;32.078;34.818;2022-09-30T09:37:24;0.65;;;0.65;;
23617;SDS011;18207;32.078;34.818;2022-09-30T09:40:27;0.55;;;0.55;;
23617;SDS011;18207;32.078;34.818;2022-09-30T09:43:11;0.50;;;0.50;;
23617;SDS011;18207;32.078;34.818;2022-09-30T09:45:55;1.23;;;0.80;;
23617;SDS011;18207;32.078;34.818;2022-09-30T09:48:43;0.85;;;0.80;;
23617;SDS011;18207;32.078;34.818;2022-09-30T09:51:25;0.98;;;0.88;;
23617;SDS011;18207;32.078;34.818;2022-09-30T09:54:07;0.73;;;0.73;;
23617;SDS011;18207;32.078;34.818;2022-09-30T09:56:40;0.90;;;0.80;;
23617;SDS011;18207;32.078;34.818;2022-09-30T09:59:11;0.70;;;0.70;;
23617;SDS011;18207;32.078;34.818;2022-09-30T10:01:46;1.48;;;0.88;;
23617;SDS011;18207;32.078;34.818;2022-09-30T10:04:20;0.90;;;0.90;;
23617;SDS011;18207;32.078;34.818;2022-09-30T10:06:54;1.70;;;0.90;;
23617;SDS011;18207;32.078;34.818;2022-09-30T10:09:30;1.35;;;0.82;;
23617;SDS011;18207;32.078;34.818;2022-09-30T10:14:58;0.63;;;0.63;;
23617;SDS011;18207;32.078;34.818;2022-09-30T10:17:39;1.00;;;0.70;;
23617;SDS011;18207;32.078;34.818;2022-09-30T10:20:17;0.47;;;0.47;;
23617;SDS011;18207;32.078;34.818;2022-09-30T10:23:02;1.40;;;0.77;;
23617;SDS011;18207;32.078;34.818;2022-09-30T10:25:58;1.48;;;0.80;;
23617;SDS011;18207;32.078;34.818;2022-09-30T10:28:43;0.65;;;0.65;;
23617;SDS011;18207;32.078;34.818;2022-09-30T10:31:16;0.88;;;0.60;;
23617;SDS011;18207;32.078;34.818;2022-09-30T10:33:55;0.40;;;0.40;;
23617;SDS011;18207;32.078;34.818;2022-09-30T10:36:31;0.75;;;0.75;;
23617;SDS011;18207;32.078;34.818;2022-09-30T10:39:04;0.60;;;0.60;;
23617;SDS011;18207;32.078;34.818;2022-09-30T10:41:46;0.70;;;0.60;;
23617;SDS011;18207;32.078;34.818;2022-09-30T10:44:19;0.88;;;0.70;;
23617;SDS011;18207;32.078;34.818;2022-09-30T10:46:52;0.80;;;0.70;;
23617;SDS011;18207;32.078;34.818;2022-09-30T10:49:30;1.27;;;0.68;;
23617;SDS011;18207;32.078;34.818;2022-09-30T10:52:15;0.60;;;0.50;;
23617;SDS011;18207;32.078;34.818;2022-09-30T10:54:54;0.60;;;0.60;;
23617;SDS011;18207;32.078;34.818;2022-09-30T10:57:38;0.65;;;0.43;;
23617;SDS011;18207;32.078;34.818;2022-09-30T11:00:11;0.75;;;0.75;;
23617;SDS011;18207;32.078;34.818;2022-09-30T11:02:52;1.55;;;0.80;;
23617;SDS011;18207;32.078;34.818;2022-09-30T11:05:29;1.30;;;0.88;;
23617;SDS011;18207;32.078;34.818;2022-09-30T11:08:05;0.85;;;0.70;;
23617;SDS011;18207;32.078;34.818;2022-09-30T11:10:48;0.68;;;0.60;;
23617;SDS011;18207;32.078;34.818;2022-09-30T11:13:37;0.93;;;0.55;;
23617;SDS011;18207;32.078;34.818;2022-09-30T11:16:20;0.38;;;0.38;;
23617;SDS011;18207;32.078;34.818;2022-09-30T11:19:00;0.68;;;0.40;;
23617;SDS011;18207;32.078;34.818;2022-09-30T11:21:39;1.52;;;0.57;;
23617;SDS011;18207;32.078;34.818;2022-09-30T11:24:28;0.68;;;0.52;;
23617;SDS011;18207;32.078;34.818;2022-09-30T11:27:09;0.85;;;0.80;;
23617;SDS011;18207;32.078;34.818;2022-09-30T11:30:02;0.82;;;0.50;;
23617;SDS011;18207;32.078;34.818;2022-09-30T11:32:50;1.33;;;0.95;;
23617;SDS011;18207;32.078;34.818;2022-09-30T11:35:46;0.98;;;0.52;;
23617;SDS011;18207;32.078;34.818;2022-09-30T11:38:32;0.90;;;0.50;;
23617;SDS011;18207;32.078;34.818;2022-09-30T11:41:31;1.00;;;0.60;;
23617;SDS011;18207;32.078;34.818;2022-09-30T11:44:13;0.77;;;0.57;;
23617;SDS011;18207;32.078;34.818;2022-09-30T11:47:08;0.57;;;0.57;;
23617;SDS011;18207;32.078;34.818;2022-09-30T11:53:25;1.02;;;0.60;;
23617;SDS011;18207;32.078;34.818;2022-09-30T11:56:26;0.80;;;0.68;;
23617;SDS011;18207;32.078;34.818;2022-09-30T11:59:14;1.25;;;0.75;;
23617;SDS011;18207;32.078;34.818;2022-09-30T12:01:55;1.13;;;0.73;;
23617;SDS011;18207;32.078;34.818;2022-09-30T12:04:37;0.65;;;0.50;;
23617;SDS011;18207;32.078;34.818;2022-09-30T12:07:14;1.33;;;0.55;;
23617;SDS011;18207;32.078;34.818;2022-09-30T12:09:55;1.00;;;0.70;;
23617;SDS011;18207;32.078;34.818;2022-09-30T12:12:35;0.57;;;0.50;;
23617;SDS011;18207;32.078;34.818;2022-09-30T12:15:11;0.50;;;0.45;;
23617;SDS011;18207;32.078;34.818;2022-09-30T12:17:53;0.57;;;0.57;;
23617;SDS011;18207;32.078;34.818;2022-09-30T12:20:33;0.60;;;0.60;;
23617;SDS011;18207;32.078;34.818;2022-09-30T12:23:16;1.20;;;0.70;;
23617;SDS011;18207;32.078;34.818;2022-09-30T12:25:55;0.57;;;0.57;;
23617;SDS011;18207;32.078;34.818;2022-09-30T12:28:29;0.52;;;0.50;;
23617;SDS011;18207;32.078;34.818;2022-09-30T12:31:32;0.65;;;0.50;;
23617;SDS011;18207;32.078;34.818;2022-09-30T12:34:39;0.93;;;0.68;;
23617;SDS011;18207;32.078;34.818;2022-09-30T12:37:33;1.08;;;0.60;;
23617;SDS011;18207;32.078;34.818;2022-09-30T12:40:23;0.98;;;0.70;;
23617;SDS011;18207;32.078;34.818;2022-09-30T12:43:24;0.93;;;0.73;;
23617;SDS011;18207;32.078;34.818;2022-09-30T12:46:42;1.33;;;0.85;;
23617;SDS011;18207;32.078;34.818;2022-09-30T12:49:31;0.90;;;0.57;;
23617;SDS011;18207;32.078;34.818;2022-09-30T12:52:05;1.52;;;0.85;;
23617;SDS011;18207;32.078;34.818;2022-09-30T12:54:45;0.93;;;0.73;;
23617;SDS011;18207;32.078;34.818;2022-09-30T12:57:22;1.02;;;0.70;;
23617;SDS011;18207;32.078;34.818;2022-09-30T12:59:56;0.65;;;0.45;;
23617;SDS011;18207;32.078;34.818;2022-09-30T13:02:34;0.90;;;0.70;;
23617;SDS011;18207;32.078;34.818;2022-09-30T13:08:25;1.25;;;0.63;;
23617;SDS011;18207;32.078;34.818;2022-09-30T13:14:46;0.82;;;0.75;;
23617;SDS011;18207;32.078;34.818;2022-09-30T13:17:26;0.52;;;0.52;;
23617;SDS011;18207;32.078;34.818;2022-09-30T13:19:57;0.90;;;0.80;;
23617;SDS011;18207;32.078;34.818;2022-09-30T13:25:30;1.10;;;1.00;;
23617;SDS011;18207;32.078;34.818;2022-09-30T13:28:27;0.82;;;0.82;;
23617;SDS011;18207;32.078;34.818;2022-09-30T13:31:11;0.70;;;0.70;;
23617;SDS011;18207;32.078;34.818;2022-09-30T13:33:45;0.85;;;0.80;;
23617;SDS011;18207;32.078;34.818;2022-09-30T13:36:37;1.00;;;0.95;;
23617;SDS011;18207;32.078;34.818;2022-09-30T13:39:24;1.23;;;0.73;;
23617;SDS011;18207;32.078;34.818;2022-09-30T13:42:00;0.70;;;0.70;;
23617;SDS011;18207;32.078;34.818;2022-09-30T13:44:55;1.48;;;1.00;;
23617;SDS011;18207;32.078;34.818;2022-09-30T13:47:33;0.70;;;0.70;;
23617;SDS011;18207;32.078;34.818;2022-09-30T13:50:14;0.82;;;0.80;;
23617;SDS011;18207;32.078;34.818;2022-09-30T13:52:52;1.42;;;0.75;;
23617;SDS011;18207;32.078;34.818;2022-09-30T13:55:30;0.98;;;0.70;;
23617;SDS011;18207;32.078;34.818;2022-09-30T13:58:16;0.75;;;0.68;;
23617;SDS011;18207;32.078;34.818;2022-09-30T14:01:12;0.73;;;0.68;;
23617;SDS011;18207;32.078;34.818;2022-09-30T14:04:33;0.73;;;0.65;;
23617;SDS011;18207;32.078;34.818;2022-09-30T14:07:44;0.47;;;0.45;;
23617;SDS011;18207;32.078;34.818;2022-09-30T14:10:47;2.47;;;0.90;;
23617;SDS011;18207;32.078;34.818;2022-09-30T14:13:54;0.60;;;0.50;;
23617;SDS011;18207;32.078;34.818;2022-09-30T14:16:59;0.75;;;0.50;;
23617;SDS011;18207;32.078;34.818;2022-09-30T14:19:54;0.93;;;0.60;;
23617;SDS011;18207;32.078;34.818;2022-09-30T14:22:48;0.70;;;0.70;;
23617;SDS011;18207;32.078;34.818;2022-09-30T14:25:19;0.85;;;0.75;;
23617;SDS011;18207;32.078;34.818;2022-09-30T14:27:52;1.48;;;0.77;;
23617;SDS011;18207;32.078;34.818;2022-09-30T14:30:36;0.50;;;0.50;;
23617;SDS011;18207;32.078;34.818;2022-09-30T14:33:32;1.55;;;0.93;;
23617;SDS011;18207;32.078;34.818;2022-09-30T14:36:06;0.80;;;0.60;;
23617;SDS011;18207;32.078;34.818;2022-09-30T14:38:46;1.33;;;0.95;;
23617;SDS011;18207;32.078;34.818;2022-09-30T14:41:22;0.60;;;0.50;;
23617;SDS011;18207;32.078;34.818;2022-09-30T14:43:56;0.65;;;0.52;;
23617;SDS011;18207;32.078;34.818;2022-09-30T14:46:34;1.35;;;0.60;;
23617;SDS011;18207;32.078;34.818;2022-09-30T14:49:10;0.90;;;0.60;;
23617;SDS011;18207;32.078;34.818;2022-09-30T14:51:47;0.90;;;0.60;;
23617;SDS011;18207;32.078;34.818;2022-09-30T14:54:18;0.50;;;0.50;;
23617;SDS011;18207;32.078;34.818;2022-09-30T14:56:56;0.77;;;0.70;;
23617;SDS011;18207;32.078;34.818;2022-09-30T14:59:29;1.67;;;0.63;;
23617;SDS011;18207;32.078;34.818;2022-09-30T15:02:10;1.20;;;0.55;;
23617;SDS011;18207;32.078;34.818;2022-09-30T15:04:49;0.60;;;0.60;;
23617;SDS011;18207;32.078;34.818;2022-09-30T15:07:27;0.88;;;0.70;;
23617;SDS011;18207;32.078;34.818;2022-09-30T15:10:00;0.60;;;0.60;;
23617;SDS011;18207;32.078;34.818;2022-09-30T15:12:31;0.85;;;0.50;;
23617;SDS011;18207;32.078;34.818;2022-09-30T15:15:20;0.50;;;0.50;;
23617;SDS011;18207;32.078;34.818;2022-09-30T15:21:00;0.57;;;0.57;;
23617;SDS011;18207;32.078;34.818;2022-09-30T15:23:38;1.35;;;0.80;;
23617;SDS011;18207;32.078;34.818;2022-09-30T15:26:13;1.02;;;0.77;;
23617;SDS011;18207;32.078;34.818;2022-09-30T15:28:45;0.70;;;0.70;;
23617;SDS011;18207;32.078;34.818;2022-09-30T15:31:18;1.08;;;0.80;;
23617;SDS011;18207;32.078;34.818;2022-09-30T15:34:03;1.10;;;0.65;;
23617;SDS011;18207;32.078;34.818;2022-09-30T15:36:45;0.60;;;0.60;;
23617;SDS011;18207;32.078;34.818;2022-09-30T15:39:24;0.50;;;0.50;;
23617;SDS011;18207;32.078;34.818;2022-09-30T15:42:27;1.00;;;0.75;;
23617;SDS011;18207;32.078;34.818;2022-09-30T15:45:03;0.90;;;0.57;;
23617;SDS011;18207;32.078;34.818;2022-09-30T15:48:01;1.08;;;0.57;;
23617;SDS011;18207;32.078;34.818;2022-09-30T15:50:43;0.70;;;0.70;;
23617;SDS011;18207;32.078;34.818;2022-09-30T15:53:18;1.08;;;0.70;;
23617;SDS011;18207;32.078;34.818;2022-09-30T15:55:53;0.57;;;0.57;;
23617;SDS011;18207;32.078;34.818;2022-09-30T15:58:32;1.33;;;0.80;;
23617;SDS011;18207;32.078;34.818;2022-09-30T16:01:15;1.33;;;0.70;;
23617;SDS011;18207;32.078;34.818;2022-09-30T16:03:49;0.68;;;0.60;;
23617;SDS011;18207;32.078;34.818;2022-09-30T16:06:24;1.08;;;0.90;;
23617;SDS011;18207;32.078;34.818;2022-09-30T16:09:00;1.67;;;0.88;;
23617;SDS011;18207;32.078;34.818;2022-09-30T16:11:35;0.70;;;0.68;;
23617;SDS011;18207;32.078;34.818;2022-09-30T16:14:10;1.13;;;0.80;;
23617;SDS011;18207;32.078;34.818;2022-09-30T16:16:54;0.90;;;0.90;;